Time;durP1;ratioP1;P1;durP2;ratioP2;P2;SDS_P1;SDS_P2;PMS_P1;PMS_P2;Temp;Humidity;BMP_temperature;BMP_pressure;BME280_temperature;BME280_humidity;BME280_pressure;Samples;Min_cycle;Max_cycle;Signal;HPM_P1;HPM_P2
2022/12/16 00:01:41;;;;;;;13.70;4.93;;;;;;;;;;5054425;28;20171;-30
2022/12/16 00:04:07;;;;;;;8.02;4.15;;;;;;;;;;5054185;28;20053;-31
2022/12/16 00:06:33;;;;;;;6.90;4.03;;;;;;;;;;5054716;28;20025;-30
2022/12/16 00:09:00;;;;;;;6.35;3.63;;;;;;;;;;5054458;28;20032;-30
2022/12/16 00:11:26;;;;;;;7.03;4.00;;;;;;;;;;5054384;28;20040;-30
2022/12/16 00:13:53;;;;;;;8.68;3.58;;;;;;;;;;5054307;28;20105;-31
2022/12/16 00:16:20;;;;;;;9.00;3.55;;;;;;;;;;5054368;28;20112;-29
2022/12/16 00:18:46;;;;;;;7.20;3.67;;;;;;;;;;5054313;28;20107;-30
2022/12/16 00:21:13;;;;;;;8.68;3.88;;;;;;;;;;5055031;28;20094;-30
2022/12/16 00:23:42;;;;;;;4.60;3.75;;;;;;;;;;5054481;28;20114;-31
2022/12/16 00:26:09;;;;;;;8.70;3.85;;;;;;;;;;5054312;28;20033;-29
2022/12/16 00:28:35;;;;;;;9.05;4.22;;;;;;;;;;5055303;28;20029;-29
2022/12/16 00:31:01;;;;;;;6.90;4.28;;;;;;;;;;5054201;28;20033;-29
2022/12/16 00:33:28;;;;;;;4.85;3.45;;;;;;;;;;5054377;28;20040;-30
2022/12/16 00:35:54;;;;;;;10.32;3.50;;;;;;;;;;5054748;28;20104;-30
2022/12/16 00:38:21;;;;;;;7.63;3.50;;;;;;;;;;5054435;28;20025;-30
2022/12/16 00:40:47;;;;;;;4.60;3.70;;;;;;;;;;5054082;28;20147;-30
2022/12/16 00:43:13;;;;;;;7.57;3.42;;;;;;;;;;5054091;28;20079;-29
2022/12/16 00:45:39;;;;;;;6.32;3.50;;;;;;;;;;5054649;28;20021;-29
2022/12/16 00:48:06;;;;;;;10.98;5.00;;;;;;;;;;5055117;28;20029;-30
2022/12/16 00:50:32;;;;;;;8.48;4.13;;;;;;;;;;5054072;28;20021;-30
2022/12/16 00:52:58;;;;;;;8.48;3.65;;;;;;;;;;5054242;28;20403;-30
2022/12/16 00:55:25;;;;;;;7.10;3.30;;;;;;;;;;5054017;28;20443;-30
2022/12/16 00:57:51;;;;;;;7.35;3.88;;;;;;;;;;5054258;28;20036;-30
2022/12/16 01:00:18;;;;;;;11.45;3.80;;;;;;;;;;5053997;28;20081;-29
2022/12/16 01:02:46;;;;;;;6.65;4.28;;;;;;;;;;5053622;28;20021;-30
2022/12/16 01:05:13;;;;;;;5.93;3.10;;;;;;;;;;5057909;28;20136;-30
2022/12/16 01:07:39;;;;;;;9.25;3.70;;;;;;;;;;5057591;28;20398;-30
2022/12/16 01:10:06;;;;;;;5.43;3.50;;;;;;;;;;5057814;28;20363;-30
2022/12/16 01:12:34;;;;;;;8.93;6.03;;;;;;;;;;5057670;28;20031;-30
2022/12/16 01:15:00;;;;;;;10.85;4.18;;;;;;;;;;5056517;28;20488;-30
2022/12/16 01:17:26;;;;;;;9.57;4.28;;;;;;;;;;5057677;28;20033;-38
2022/12/16 01:19:53;;;;;;;5.20;3.40;;;;;;;;;;5057380;28;20028;-31
2022/12/16 01:22:20;;;;;;;6.57;4.03;;;;;;;;;;5057403;28;20032;-31
2022/12/16 01:24:46;;;;;;;8.73;3.90;;;;;;;;;;5057510;28;20029;-31
2022/12/16 01:27:13;;;;;;;3.72;3.35;;;;;;;;;;5057760;28;20057;-31
2022/12/16 01:29:39;;;;;;;8.73;3.63;;;;;;;;;;5057214;28;20075;-30
2022/12/16 01:32:05;;;;;;;7.80;3.35;;;;;;;;;;5057332;28;20044;-30
2022/12/16 01:34:32;;;;;;;5.28;3.95;;;;;;;;;;5057602;28;20043;-31
2022/12/16 01:36:58;;;;;;;8.57;4.30;;;;;;;;;;5057340;28;20107;-30
2022/12/16 01:39:26;;;;;;;7.05;3.58;;;;;;;;;;5057251;28;20136;-29
2022/12/16 01:41:52;;;;;;;6.80;3.53;;;;;;;;;;5057073;28;20048;-31
2022/12/16 01:44:23;;;;;;;5.75;3.38;;;;;;;;;;5057167;28;20348;-30
2022/12/16 01:46:50;;;;;;;8.73;4.28;;;;;;;;;;5057457;28;20478;-31
2022/12/16 01:49:22;;;;;;;6.07;3.63;;;;;;;;;;5057114;28;20025;-31
2022/12/16 01:51:48;;;;;;;11.85;4.10;;;;;;;;;;5056990;28;20103;-30
2022/12/16 01:54:23;;;;;;;4.70;3.60;;;;;;;;;;5056739;28;20029;-31
2022/12/16 01:56:54;;;;;;;6.32;3.60;;;;;;;;;;5056917;28;20102;-30
2022/12/16 01:59:20;;;;;;;5.53;3.43;;;;;;;;;;5056685;28;20057;-31
2022/12/16 02:01:46;;;;;;;9.10;4.78;;;;;;;;;;5056400;28;20275;-30
2022/12/16 02:04:12;;;;;;;4.70;3.10;;;;;;;;;;5056434;28;20049;-30
2022/12/16 02:06:39;;;;;;;4.85;3.60;;;;;;;;;;5056472;28;20078;-30
2022/12/16 02:09:07;;;;;;;4.47;3.60;;;;;;;;;;5056417;28;20101;-29
2022/12/16 02:11:46;;;;;;;9.93;3.60;;;;;;;;;;5056366;28;20035;-32
2022/12/16 02:14:31;;;;;;;5.93;4.13;;;;;;;;;;5056688;28;20064;-29
2022/12/16 02:17:00;;;;;;;7.95;3.80;;;;;;;;;;5055936;28;20475;-30
2022/12/16 02:19:26;;;;;;;6.07;4.13;;;;;;;;;;5056210;28;20055;-30
2022/12/16 02:21:52;;;;;;;5.55;3.95;;;;;;;;;;5055999;28;20044;-31
2022/12/16 02:24:18;;;;;;;5.07;4.25;;;;;;;;;;5056439;28;20460;-29
2022/12/16 02:26:57;;;;;;;5.72;3.47;;;;;;;;;;5056063;28;20483;-30
2022/12/16 02:29:26;;;;;;;5.55;3.42;;;;;;;;;;5056054;28;20096;-30
2022/12/16 02:31:58;;;;;;;4.30;3.90;;;;;;;;;;5055927;28;20044;-30
2022/12/16 02:34:37;;;;;;;7.35;4.00;;;;;;;;;;5056272;28;20031;-29
2022/12/16 02:37:03;;;;;;;7.22;4.57;;;;;;;;;;5056221;28;20025;-30
2022/12/16 02:39:42;;;;;;;3.80;3.47;;;;;;;;;;5055812;28;20047;-30
2022/12/16 02:42:15;;;;;;;5.63;3.63;;;;;;;;;;5055678;28;20040;-31
2022/12/16 02:44:47;;;;;;;5.70;3.70;;;;;;;;;;5055777;28;20467;-31
2022/12/16 02:47:13;;;;;;;9.27;4.93;;;;;;;;;;5055677;28;20128;-30
2022/12/16 02:49:45;;;;;;;9.38;3.63;;;;;;;;;;5055910;28;20021;-30
2022/12/16 02:52:11;;;;;;;4.68;4.03;;;;;;;;;;5055532;28;20024;-31
2022/12/16 02:54:37;;;;;;;5.25;3.92;;;;;;;;;;5055597;28;20028;-30
2022/12/16 02:57:03;;;;;;;5.65;4.13;;;;;;;;;;5056048;28;20037;-30
2022/12/16 02:59:32;;;;;;;8.02;4.15;;;;;;;;;;5055478;28;20053;-31
2022/12/16 03:02:06;;;;;;;4.90;4.07;;;;;;;;;;5055307;28;20441;-30
2022/12/16 03:04:51;;;;;;;6.55;4.22;;;;;;;;;;5055237;28;20073;-30
2022/12/16 03:07:18;;;;;;;5.82;4.28;;;;;;;;;;5056148;28;20025;-30
2022/12/16 03:09:45;;;;;;;4.45;3.65;;;;;;;;;;5055811;28;20024;-30
2022/12/16 03:12:13;;;;;;;7.88;4.93;;;;;;;;;;5055137;28;20029;-30
2022/12/16 03:14:41;;;;;;;4.07;3.10;;;;;;;;;;5055221;28;20032;-30
2022/12/16 03:17:08;;;;;;;6.97;4.07;;;;;;;;;;5054214;28;20036;-31
2022/12/16 03:19:35;;;;;;;6.20;3.63;;;;;;;;;;5055359;28;20037;-31
2022/12/16 03:22:23;;;;;;;3.75;3.45;;;;;;;;;;5055172;28;20114;-30
2022/12/16 03:24:49;;;;;;;6.28;3.75;;;;;;;;;;5055012;28;20052;-31
2022/12/16 03:27:31;;;;;;;5.60;3.72;;;;;;;;;;5054771;28;20503;-30
2022/12/16 03:30:05;;;;;;;5.85;3.92;;;;;;;;;;5054913;28;20472;-30
2022/12/16 03:32:34;;;;;;;7.25;4.05;;;;;;;;;;5054785;28;20036;-29
2022/12/16 03:35:04;;;;;;;4.88;3.75;;;;;;;;;;5055130;28;20168;-31
2022/12/16 03:37:32;;;;;;;6.60;3.25;;;;;;;;;;5055068;28;20024;-31
2022/12/16 03:40:01;;;;;;;11.23;5.40;;;;;;;;;;5054744;28;20120;-30
2022/12/16 03:42:27;;;;;;;6.15;3.33;;;;;;;;;;5054607;28;20521;-30
2022/12/16 03:44:53;;;;;;;5.20;4.05;;;;;;;;;;5054718;28;20114;-31
2022/12/16 03:47:20;;;;;;;9.68;3.60;;;;;;;;;;5055218;28;20452;-30
2022/12/16 03:49:46;;;;;;;4.53;3.60;;;;;;;;;;5054648;28;20032;-31
2022/12/16 03:52:12;;;;;;;4.40;4.00;;;;;;;;;;5054479;28;20028;-30
2022/12/16 03:54:39;;;;;;;4.40;3.50;;;;;;;;;;5054613;28;20113;-30
2022/12/16 03:57:05;;;;;;;10.88;4.30;;;;;;;;;;5054803;28;20036;-30
2022/12/16 03:59:31;;;;;;;6.13;3.63;;;;;;;;;;5054763;28;20033;-31
2022/12/16 04:01:58;;;;;;;4.88;4.05;;;;;;;;;;5054357;28;20036;-30
2022/12/16 04:04:25;;;;;;;7.82;4.75;;;;;;;;;;5054226;28;20049;-30
2022/12/16 04:07:19;;;;;;;4.45;4.05;;;;;;;;;;5054467;28;20360;-31
2022/12/16 04:09:37;;;;;;;5.50;3.92;;;;;;;;;;5054819;28;20460;-30
2022/12/16 04:25:49;;;;;;;5.75;3.55;;;;;;;;;;5054431;28;20128;-30
2022/12/16 04:28:16;;;;;;;6.57;3.60;;;;;;;;;;5054569;28;20036;-30
2022/12/16 04:30:42;;;;;;;6.60;5.57;;;;;;;;;;5054528;28;20104;-30
